Time;durP1;ratioP1;P1;durP2;ratioP2;P2;SDS_P1;SDS_P2;PMS_P1;PMS_P2;Temp;Humidity;BMP_temperature;BMP_pressure;BME280_temperature;BME280_humidity;BME280_pressure;Samples;Min_cycle;Max_cycle;Signal;HPM_P1;HPM_P2
2024/03/02 00:02:46;;;;;;;50.57;30.07;;;;;;;2.91;100.00;96898.69;6301562;28;20663;-52
2024/03/02 00:05:51;;;;;;;54.57;31.90;;;;;;;2.73;100.00;96900.19;6305367;28;20202;-49
2024/03/02 00:08:58;;;;;;;61.63;32.80;;;;;;;2.71;100.00;96896.97;6301457;28;20198;-51
2024/03/02 00:12:00;;;;;;;59.40;32.17;;;;;;;2.66;100.00;96899.44;6309166;28;20216;-52
2024/03/02 00:15:17;;;;;;;46.83;28.30;;;;;;;2.94;100.00;96903.50;6307951;28;20738;-51
2024/03/02 00:18:34;;;;;;;53.30;30.40;;;;;;;2.53;100.00;96899.50;6313061;28;20202;-51
2024/03/02 00:21:37;;;;;;;56.53;32.10;;;;;;;2.40;100.00;96899.56;6270643;28;20224;-52
2024/03/02 00:24:39;;;;;;;74.90;39.10;;;;;;;2.37;100.00;96894.72;6303794;28;20190;-52
2024/03/02 00:27:42;;;;;;;62.77;34.63;;;;;;;2.58;100.00;96899.69;6307395;28;20573;-51
2024/03/02 00:30:44;;;;;;;60.33;34.37;;;;;;;2.43;100.00;96907.03;6293817;28;20269;-47
2024/03/02 00:33:48;;;;;;;74.60;36.37;;;;;;;2.58;100.00;96902.31;6303931;28;20196;-50
2024/03/02 00:36:50;;;;;;;56.40;30.03;;;;;;;2.71;100.00;96904.88;6308222;28;20196;-51
2024/03/02 00:39:53;;;;;;;62.60;32.80;;;;;;;2.29;100.00;96893.13;6281976;28;20222;-51
2024/03/02 00:42:56;;;;;;;54.70;32.23;;;;;;;2.25;100.00;96903.25;6313795;28;20242;-50
2024/03/02 00:45:58;;;;;;;57.23;30.40;;;;;;;2.23;100.00;96894.78;6308559;28;20187;-52
2024/03/02 00:49:03;;;;;;;59.80;31.73;;;;;;;2.28;100.00;96899.41;6305228;28;20200;-50
2024/03/02 00:52:06;;;;;;;66.90;32.97;;;;;;;2.33;100.00;96897.75;6302588;28;20296;-48
2024/03/02 00:55:09;;;;;;;58.37;30.57;;;;;;;2.18;100.00;96884.09;6304243;28;20576;-52
2024/03/02 00:58:11;;;;;;;66.97;32.37;;;;;;;2.16;100.00;96899.22;6285902;28;20648;-49
2024/03/02 01:01:13;;;;;;;56.63;31.17;;;;;;;2.03;100.00;96873.03;6301503;28;20206;-51
2024/03/02 01:04:16;;;;;;;55.93;30.30;;;;;;;2.03;100.00;96897.47;6309521;28;20768;-49
2024/03/02 01:07:18;;;;;;;55.57;29.70;;;;;;;2.07;100.00;96890.00;6296679;28;20231;-50
2024/03/02 01:10:20;;;;;;;56.33;29.67;;;;;;;2.03;100.00;96894.03;6310005;28;20519;-53
2024/03/02 01:13:23;;;;;;;79.67;40.27;;;;;;;2.00;100.00;96891.81;6312681;28;20202;-49
2024/03/02 01:16:25;;;;;;;62.87;33.70;;;;;;;2.22;100.00;96880.03;6316999;28;20202;-52
2024/03/02 01:19:27;;;;;;;56.77;30.43;;;;;;;2.23;100.00;96881.63;6291687;28;20221;-52
2024/03/02 01:22:30;;;;;;;66.57;35.13;;;;;;;2.10;100.00;96879.06;6305767;28;20270;-51
2024/03/02 01:25:32;;;;;;;58.17;30.50;;;;;;;2.27;100.00;96882.03;6310480;28;20184;-52
2024/03/02 01:28:34;;;;;;;71.30;39.10;;;;;;;2.22;100.00;96877.41;6310390;28;20212;-50
2024/03/02 01:31:36;;;;;;;72.67;38.63;;;;;;;2.26;100.00;96867.25;6296223;28;20536;-51
2024/03/02 01:34:38;;;;;;;67.03;35.37;;;;;;;2.27;100.00;96872.31;6310592;28;20702;-47
2024/03/02 01:37:41;;;;;;;70.77;32.60;;;;;;;2.35;100.00;96868.63;6314605;28;20198;-51
2024/03/02 01:40:46;;;;;;;66.73;34.03;;;;;;;2.33;100.00;96862.78;6311385;28;20204;-50
2024/03/02 01:43:48;;;;;;;67.83;33.23;;;;;;;2.13;100.00;96864.72;6299919;28;20785;-48
2024/03/02 01:46:50;;;;;;;72.27;34.53;;;;;;;2.30;100.00;96861.38;6305003;28;20656;-49
2024/03/02 01:49:54;;;;;;;59.77;31.60;;;;;;;2.16;100.00;96862.44;6307440;28;20212;-49
2024/03/02 01:52:57;;;;;;;58.80;30.43;;;;;;;2.04;100.00;96864.94;6306674;28;20217;-52
2024/03/02 01:55:59;;;;;;;55.93;29.23;;;;;;;2.11;100.00;96861.47;6309736;28;20193;-52
2024/03/02 01:59:01;;;;;;;61.73;33.67;;;;;;;2.22;100.00;96850.31;6313353;28;20213;-48
2024/03/02 02:02:03;;;;;;;68.10;33.13;;;;;;;2.16;100.00;96865.06;6314600;28;20197;-52
2024/03/02 02:05:06;;;;;;;55.60;30.60;;;;;;;2.17;100.00;96837.81;6294733;28;20203;-50
2024/03/02 02:08:08;;;;;;;62.17;30.73;;;;;;;2.08;100.00;96854.03;6312139;28;20614;-50
2024/03/02 02:11:10;;;;;;;53.50;29.77;;;;;;;2.10;100.00;96851.97;6316414;28;20187;-51
2024/03/02 02:14:12;;;;;;;58.60;29.63;;;;;;;2.11;100.00;96849.13;6307045;28;20223;-48
2024/03/02 02:17:14;;;;;;;55.43;29.90;;;;;;;2.24;100.00;96848.28;6308749;28;20737;-50
2024/03/02 02:20:17;;;;;;;54.23;28.57;;;;;;;2.06;100.00;96854.19;6306699;28;20254;-54
2024/03/02 02:23:19;;;;;;;60.40;32.20;;;;;;;2.10;100.00;96850.16;6305815;28;20650;-50
2024/03/02 02:26:21;;;;;;;59.90;31.87;;;;;;;2.19;100.00;96834.97;6310499;28;20196;-50
2024/03/02 02:29:23;;;;;;;46.37;27.07;;;;;;;2.22;100.00;96824.03;6302212;28;20707;-50
2024/03/02 02:32:25;;;;;;;53.13;29.63;;;;;;;2.18;100.00;96836.00;6313497;28;20191;-48
2024/03/02 02:35:28;;;;;;;55.10;31.83;;;;;;;2.11;100.00;96833.38;6309090;28;20691;-52
2024/03/02 02:38:32;;;;;;;50.03;27.90;;;;;;;2.40;100.00;96832.03;6304146;28;20650;-54
2024/03/02 02:41:34;;;;;;;51.73;28.83;;;;;;;2.08;100.00;96822.50;6303592;28;20525;-53
2024/03/02 02:44:36;;;;;;;50.00;27.83;;;;;;;2.20;100.00;96824.25;6304398;28;20434;-50
2024/03/02 02:47:39;;;;;;;49.80;28.70;;;;;;;2.06;100.00;96820.06;6304420;28;20641;-50
2024/03/02 02:50:41;;;;;;;48.50;27.40;;;;;;;2.06;100.00;96826.13;6291042;28;20203;-52
2024/03/02 02:53:43;;;;;;;51.37;27.20;;;;;;;2.05;100.00;96828.97;6305343;28;20200;-52
2024/03/02 02:56:46;;;;;;;53.53;26.73;;;;;;;1.96;100.00;96814.44;6314849;28;20315;-49
2024/03/02 02:59:48;;;;;;;43.97;25.80;;;;;;;2.17;100.00;96834.34;6312464;28;20208;-51
2024/03/02 03:02:50;;;;;;;48.40;26.70;;;;;;;1.92;100.00;96808.81;6315209;28;20707;-52
2024/03/02 03:05:52;;;;;;;47.10;26.80;;;;;;;1.75;100.00;96797.16;6310811;28;20572;-53
2024/03/02 03:08:55;;;;;;;38.97;24.77;;;;;;;2.04;100.00;96828.16;6301981;28;20259;-50
2024/03/02 03:11:57;;;;;;;44.77;24.63;;;;;;;2.28;100.00;96828.47;6310228;28;20186;-54
2024/03/02 03:14:59;;;;;;;40.97;23.97;;;;;;;2.09;100.00;96824.91;6287846;28;20664;-53
2024/03/02 03:18:03;;;;;;;40.30;23.10;;;;;;;2.26;100.00;96822.59;6303176;28;20706;-48
2024/03/02 03:21:05;;;;;;;38.90;22.80;;;;;;;2.00;100.00;96820.91;6309798;28;20218;-53
2024/03/02 03:24:08;;;;;;;39.03;22.13;;;;;;;1.97;100.00;96822.13;6295174;28;20193;-51
2024/03/02 03:27:11;;;;;;;39.40;24.37;;;;;;;2.07;100.00;96821.69;6312607;28;20277;-52
2024/03/02 03:30:14;;;;;;;38.83;23.00;;;;;;;2.34;100.00;96824.97;6297763;28;20733;-51
2024/03/02 03:33:16;;;;;;;41.80;23.53;;;;;;;2.02;100.00;96832.00;6314213;28;20184;-52
2024/03/02 03:36:18;;;;;;;43.80;23.97;;;;;;;2.04;100.00;96835.22;6311837;28;20687;-51
2024/03/02 03:39:21;;;;;;;51.73;30.33;;;;;;;2.10;100.00;96830.97;6294065;28;20200;-49
2024/03/02 03:42:23;;;;;;;44.20;26.03;;;;;;;2.13;100.00;96820.84;6304916;28;20733;-52
2024/03/02 03:45:26;;;;;;;40.10;24.67;;;;;;;2.03;100.00;96829.19;6307686;28;20588;-50
2024/03/02 03:48:30;;;;;;;44.80;23.67;;;;;;;2.04;100.00;96824.72;6302510;28;20201;-52
2024/03/02 03:51:33;;;;;;;39.17;21.87;;;;;;;2.06;100.00;96823.47;6310388;28;20194;-53
2024/03/02 03:54:37;;;;;;;38.40;22.17;;;;;;;2.12;100.00;96821.88;6304650;28;20631;-53
2024/03/02 03:57:39;;;;;;;33.23;20.33;;;;;;;1.92;100.00;96832.47;6309788;28;20320;-52
2024/03/02 04:00:42;;;;;;;37.97;21.77;;;;;;;1.78;100.00;96831.69;6293047;28;20210;-53
2024/03/02 04:03:44;;;;;;;33.33;20.43;;;;;;;2.14;100.00;96830.34;6300759;28;20248;-49
2024/03/02 04:06:47;;;;;;;33.37;19.70;;;;;;;2.28;100.00;96831.88;6307786;28;20570;-53
2024/03/02 04:09:49;;;;;;;33.23;21.57;;;;;;;2.18;100.00;96831.53;6284993;28;20978;-50
2024/03/02 04:12:51;;;;;;;34.80;20.57;;;;;;;1.90;100.00;96842.34;6302662;28;20188;-51
2024/03/02 04:15:53;;;;;;;29.97;18.53;;;;;;;1.72;100.00;96843.00;6307340;28;20285;-50
2024/03/02 04:18:56;;;;;;;29.87;18.60;;;;;;;1.66;100.00;96841.19;6308243;28;20197;-49
2024/03/02 04:21:58;;;;;;;28.63;18.80;;;;;;;1.61;100.00;96841.00;6314729;28;20507;-49
2024/03/02 04:25:10;;;;;;;40.20;23.90;;;;;;;1.70;100.00;96844.22;6306870;28;20195;-50
2024/03/02 04:28:12;;;;;;;32.93;20.67;;;;;;;2.02;100.00;96848.59;6301479;28;20195;-52
2024/03/02 04:31:15;;;;;;;37.43;23.27;;;;;;;1.66;100.00;96851.69;6280627;28;20188;-50
2024/03/02 04:34:18;;;;;;;31.67;18.90;;;;;;;1.50;100.00;96846.91;6304651;28;20323;-51
2024/03/02 04:37:20;;;;;;;25.40;18.30;;;;;;;1.41;100.00;96838.44;6300017;28;20582;-52
2024/03/02 04:40:22;;;;;;;27.93;17.90;;;;;;;1.37;100.00;96863.47;6306436;28;20219;-50
2024/03/02 04:43:24;;;;;;;27.50;17.00;;;;;;;1.43;100.00;96861.81;6302464;28;20238;-52
2024/03/02 04:46:26;;;;;;;23.50;15.37;;;;;;;1.47;100.00;96868.28;6309122;28;20194;-53
2024/03/02 04:49:29;;;;;;;23.67;14.07;;;;;;;1.34;100.00;96869.13;6319778;28;20552;-52
2024/03/02 04:52:32;;;;;;;30.57;18.27;;;;;;;1.33;100.00;96864.06;6314177;28;20829;-50
2024/03/02 04:58:36;;;;;;;23.17;13.83;;;;;;;1.21;100.00;96874.38;6315935;28;20208;-52
2024/03/02 05:01:38;;;;;;;19.53;13.63;;;;;;;1.18;100.00;96878.22;6312999;28;20245;-49
2024/03/02 05:04:41;;;;;;;24.93;14.67;;;;;;;1.35;100.00;96890.94;6301794;28;20192;-51
2024/03/02 05:07:43;;;;;;;25.73;15.27;;;;;;;1.35;100.00;96883.06;6305679;28;20284;-50
2024/03/02 05:10:46;;;;;;;23.53;14.97;;;;;;;1.66;100.00;96893.72;6307580;28;20192;-48
2024/03/02 05:13:48;;;;;;;20.53;14.20;;;;;;;1.78;100.00;96893.91;6309108;28;20202;-52
2024/03/02 05:16:50;;;;;;;27.20;18.27;;;;;;;2.03;100.00;96883.53;6309809;28;20762;-50
2024/03/02 05:19:52;;;;;;;30.93;17.80;;;;;;;2.10;100.00;96871.16;6313091;28;20571;-52
2024/03/02 05:22:54;;;;;;;28.40;17.60;;;;;;;2.27;100.00;96879.41;6316129;28;20544;-49
2024/03/02 05:25:57;;;;;;;22.27;15.50;;;;;;;2.24;100.00;96875.38;6301358;28;20904;-48
2024/03/02 05:28:59;;;;;;;23.63;15.83;;;;;;;2.20;100.00;96882.03;6311149;28;20648;-49
2024/03/02 05:32:01;;;;;;;30.70;18.43;;;;;;;2.23;100.00;96891.34;6308729;28;20606;-50
2024/03/02 05:35:04;;;;;;;29.83;20.37;;;;;;;2.46;100.00;96885.56;6308385;28;20580;-53
2024/03/02 05:38:07;;;;;;;27.10;19.47;;;;;;;2.34;100.00;96888.06;6308920;28;20194;-51
2024/03/02 05:41:09;;;;;;;27.93;18.23;;;;;;;2.61;100.00;96895.81;6315407;28;20222;-50
2024/03/02 05:44:12;;;;;;;24.63;17.27;;;;;;;2.54;100.00;96898.47;6314744;28;20190;-50
2024/03/02 05:47:14;;;;;;;26.40;16.87;;;;;;;2.39;100.00;96893.50;6311392;28;20195;-50
2024/03/02 05:50:16;;;;;;;24.43;16.43;;;;;;;2.46;100.00;96886.38;6316416;28;20211;-52
2024/03/02 05:53:18;;;;;;;23.90;15.77;;;;;;;2.64;100.00;96888.31;6303193;28;20564;-50
2024/03/02 05:56:20;;;;;;;27.20;17.13;;;;;;;2.37;100.00;96905.25;6316721;28;20400;-52
2024/03/02 05:59:22;;;;;;;26.03;15.90;;;;;;;2.22;100.00;96903.69;6314665;28;20192;-49
2024/03/02 06:02:24;;;;;;;23.73;15.83;;;;;;;2.28;100.00;96913.34;6313938;28;20209;-52
2024/03/02 06:05:26;;;;;;;23.60;14.60;;;;;;;2.14;100.00;96910.97;6312081;28;20561;-53
2024/03/02 06:08:29;;;;;;;26.17;16.23;;;;;;;2.09;100.00;96913.41;6314296;28;20326;-53
2024/03/02 06:11:31;;;;;;;25.77;16.13;;;;;;;2.10;100.00;96921.09;6313871;28;20869;-54
2024/03/02 06:14:33;;;;;;;25.30;15.43;;;;;;;2.12;100.00;96923.50;6312369;28;20202;-52
2024/03/02 06:17:36;;;;;;;24.47;16.47;;;;;;;2.12;100.00;96928.75;6311227;28;20306;-53
2024/03/02 06:20:38;;;;;;;26.57;15.73;;;;;;;2.11;100.00;96938.44;6306001;28;20210;-50
2024/03/02 06:23:40;;;;;;;20.33;13.60;;;;;;;2.12;100.00;96934.84;6308927;28;20206;-50
2024/03/02 06:26:42;;;;;;;22.43;15.57;;;;;;;2.12;100.00;96936.63;6309155;28;20208;-53
2024/03/02 06:29:44;;;;;;;26.07;18.20;;;;;;;2.03;100.00;96912.44;6310347;28;20221;-51
2024/03/02 06:32:46;;;;;;;25.77;18.30;;;;;;;2.08;100.00;96925.75;6303971;28;20214;-52
2024/03/02 06:35:49;;;;;;;29.03;19.00;;;;;;;2.20;100.00;96926.72;6298559;28;20197;-51
2024/03/02 06:38:51;;;;;;;24.27;14.47;;;;;;;2.56;100.00;96926.19;6300400;28;20769;-50
2024/03/02 06:41:53;;;;;;;24.60;15.87;;;;;;;2.41;100.00;96916.94;6315751;28;20308;-50
2024/03/02 06:44:55;;;;;;;44.23;28.33;;;;;;;2.32;100.00;96922.44;6317032;28;20196;-52
2024/03/02 06:47:57;;;;;;;27.00;19.63;;;;;;;2.32;100.00;96926.88;6313172;28;20411;-50
2024/03/02 06:51:01;;;;;;;21.03;15.27;;;;;;;2.35;100.00;96928.28;6310400;28;20709;-50
2024/03/02 06:54:03;;;;;;;24.60;16.07;;;;;;;2.41;100.00;96925.63;6303514;28;20205;-52
2024/03/02 06:57:05;;;;;;;28.43;17.93;;;;;;;2.48;100.00;96934.31;6307632;28;20568;-53
2024/03/02 07:00:08;;;;;;;32.37;21.87;;;;;;;2.48;100.00;96933.50;6309279;28;20195;-52
2024/03/02 07:03:11;;;;;;;30.10;21.87;;;;;;;2.62;100.00;96939.50;6302681;28;20186;-50
2024/03/02 07:06:13;;;;;;;31.93;22.07;;;;;;;2.64;100.00;96937.47;6295275;28;20213;-49
2024/03/02 07:09:15;;;;;;;31.27;22.43;;;;;;;2.64;100.00;96926.94;6299810;28;20203;-50
2024/03/02 07:12:17;;;;;;;29.00;22.00;;;;;;;2.69;100.00;96933.19;6314679;28;20196;-52
2024/03/02 07:18:31;;;;;;;31.97;22.93;;;;;;;2.85;100.00;96927.44;6301417;28;20211;-53
2024/03/02 07:21:33;;;;;;;29.70;21.17;;;;;;;2.90;100.00;96929.44;6304969;28;20205;-48
2024/03/02 07:24:42;;;;;;;34.33;22.90;;;;;;;2.95;100.00;96928.78;6305389;28;20200;-53
2024/03/02 07:27:44;;;;;;;33.70;23.40;;;;;;;2.97;100.00;96932.03;6304380;28;20205;-53
2024/03/02 07:30:46;;;;;;;30.37;22.93;;;;;;;3.13;100.00;96938.59;6301809;28;20193;-51
2024/03/02 07:33:48;;;;;;;38.23;23.70;;;;;;;3.41;100.00;96943.47;6298441;28;20189;-51
2024/03/02 07:36:51;;;;;;;45.97;26.37;;;;;;;3.42;100.00;96948.53;6307829;28;20665;-50
2024/03/02 07:39:53;;;;;;;35.23;25.30;;;;;;;3.46;100.00;96960.25;6297568;28;20273;-50
2024/03/02 07:42:56;;;;;;;43.77;28.37;;;;;;;3.55;100.00;96958.16;6311507;28;20229;-53
2024/03/02 07:45:58;;;;;;;35.60;27.20;;;;;;;3.61;100.00;96954.66;6308341;28;20195;-51
2024/03/02 07:49:00;;;;;;;41.10;29.33;;;;;;;3.77;100.00;96967.28;6306236;28;20678;-52
2024/03/02 07:52:03;;;;;;;46.20;30.20;;;;;;;4.13;100.00;96960.44;6304644;28;20209;-53
2024/03/02 07:55:05;;;;;;;43.60;32.13;;;;;;;4.23;100.00;96962.59;6309741;28;20197;-50
2024/03/02 07:58:08;;;;;;;45.97;31.23;;;;;;;4.24;100.00;96946.56;6295250;28;20246;-53
2024/03/02 08:01:11;;;;;;;41.60;28.70;;;;;;;4.29;100.00;96935.38;6292958;28;20777;-52
2024/03/02 08:04:14;;;;;;;47.20;31.03;;;;;;;4.52;100.00;96959.22;6305266;28;20197;-53
2024/03/02 08:07:18;;;;;;;43.97;29.93;;;;;;;4.57;100.00;96955.91;6311776;28;20189;-52
2024/03/02 08:10:20;;;;;;;41.77;28.80;;;;;;;4.71;100.00;96962.66;6309051;28;20276;-51
2024/03/02 08:13:23;;;;;;;42.23;29.20;;;;;;;4.78;100.00;96950.19;6308594;28;20206;-52
2024/03/02 08:16:25;;;;;;;39.70;28.40;;;;;;;5.02;100.00;96959.00;6307330;28;20190;-50
2024/03/02 08:19:27;;;;;;;41.60;29.37;;;;;;;5.12;100.00;96959.28;6301980;28;20187;-52
2024/03/02 08:22:29;;;;;;;39.30;29.63;;;;;;;5.30;100.00;96961.03;6301377;28;20202;-48
2024/03/02 08:25:32;;;;;;;39.33;27.77;;;;;;;5.41;100.00;96964.75;6297406;28;20358;-50
2024/03/02 08:28:34;;;;;;;40.23;27.50;;;;;;;5.51;100.00;96948.34;6300882;28;20204;-51
2024/03/02 08:31:36;;;;;;;39.23;28.87;;;;;;;5.63;100.00;96931.47;6302308;28;20648;-52
2024/03/02 08:34:42;;;;;;;41.03;29.53;;;;;;;5.92;100.00;96958.06;6303161;28;20734;-52
2024/03/02 08:37:44;;;;;;;35.23;27.20;;;;;;;6.15;100.00;96957.25;6309504;28;20195;-50
2024/03/02 08:40:47;;;;;;;37.77;27.80;;;;;;;6.39;100.00;96953.53;6303144;28;20664;-48
2024/03/02 08:43:49;;;;;;;35.03;26.23;;;;;;;6.51;100.00;96944.81;6307214;28;20568;-52
2024/03/02 08:46:51;;;;;;;35.30;26.27;;;;;;;6.62;100.00;96946.59;6304621;28;20567;-48
2024/03/02 08:49:53;;;;;;;34.50;25.60;;;;;;;6.87;100.00;96949.75;6306993;28;20327;-52
2024/03/02 08:53:03;;;;;;;35.10;24.77;;;;;;;7.06;100.00;96945.06;6287789;28;20198;-51
2024/03/02 08:56:06;;;;;;;31.97;23.80;;;;;;;7.25;100.00;96948.31;6296868;28;20308;-51
2024/03/02 08:59:08;;;;;;;29.77;23.03;;;;;;;7.55;100.00;96942.72;6304014;28;20239;-53
2024/03/02 09:02:11;;;;;;;31.57;24.50;;;;;;;7.71;100.00;96949.06;6300133;28;20206;-51
2024/03/02 09:05:13;;;;;;;31.53;21.97;;;;;;;7.85;100.00;96947.72;6305122;28;20190;-51
2024/03/02 09:08:15;;;;;;;28.93;21.73;;;;;;;8.10;100.00;96955.25;6303512;28;20273;-54
2024/03/02 09:11:17;;;;;;;24.93;19.97;;;;;;;8.33;100.00;96945.47;6296677;28;20202;-53
2024/03/02 09:14:20;;;;;;;24.77;19.30;;;;;;;8.50;100.00;96946.25;6329061;28;20196;-51
2024/03/02 09:17:22;;;;;;;25.43;17.40;;;;;;;8.46;100.00;96939.81;6328221;28;20220;-52
2024/03/02 09:20:24;;;;;;;24.27;18.30;;;;;;;8.60;100.00;96919.03;6326327;28;20182;-53
2024/03/02 09:23:26;;;;;;;23.47;18.77;;;;;;;8.73;100.00;96940.69;6329954;28;20269;-53
2024/03/02 09:26:28;;;;;;;27.10;20.53;;;;;;;8.68;100.00;96919.41;6333896;28;20205;-54
2024/03/02 09:29:31;;;;;;;23.83;18.70;;;;;;;8.98;100.00;96945.50;6327660;28;20198;-54
2024/03/02 09:32:33;;;;;;;26.27;21.40;;;;;;;9.12;100.00;96939.78;6332831;28;20190;-49
2024/03/02 09:35:35;;;;;;;25.63;20.37;;;;;;;9.26;100.00;96936.50;6331296;28;20186;-49
2024/03/02 09:38:38;;;;;;;28.97;21.30;;;;;;;9.49;100.00;96929.22;6332185;28;20199;-54
2024/03/02 09:41:40;;;;;;;24.50;18.23;;;;;;;9.53;100.00;96933.78;6331797;28;20236;-52
2024/03/02 09:44:43;;;;;;;27.10;21.13;;;;;;;9.76;100.00;96923.88;6332004;28;20208;-49
2024/03/02 09:47:45;;;;;;;27.43;20.27;;;;;;;9.81;100.00;96929.22;6334579;28;20193;-55
2024/03/02 09:50:47;;;;;;;30.73;20.73;;;;;;;9.88;100.00;96924.47;6329441;28;20209;-53
2024/03/02 09:53:50;;;;;;;25.03;18.77;;;;;;;9.93;100.00;96921.06;6331393;28;20215;-52
2024/03/02 09:56:52;;;;;;;22.37;17.87;;;;;;;10.05;100.00;96927.81;6333224;28;20214;-53
2024/03/02 09:59:55;;;;;;;20.10;15.87;;;;;;;10.12;98.39;96924.91;6332537;28;20208;-53
2024/03/02 10:02:58;;;;;;;22.37;16.93;;;;;;;10.16;99.17;96927.88;6333243;28;20208;-51
2024/03/02 10:06:23;;;;;;;22.27;17.73;;;;;;;10.24;100.00;96919.41;6331376;28;20208;-54
2024/03/02 10:09:31;;;;;;;20.37;16.07;;;;;;;10.31;98.13;96926.13;6332917;28;20195;-54
2024/03/02 10:12:33;;;;;;;22.30;15.97;;;;;;;10.52;96.87;96928.88;6329962;28;20192;-53
2024/03/02 10:15:40;;;;;;;15.67;10.60;;;;;;;10.50;86.25;96936.34;6313926;28;20194;-53
2024/03/02 10:18:42;;;;;;;18.43;13.13;;;;;;;10.48;86.53;96936.56;6325311;28;20192;-48
2024/03/02 10:21:46;;;;;;;17.53;11.47;;;;;;;10.42;84.75;96934.94;6317406;28;20217;-50
2024/03/02 10:24:49;;;;;;;15.80;12.20;;;;;;;10.40;86.91;96937.09;6329727;28;20221;-51
2024/03/02 10:28:05;;;;;;;15.93;12.43;;;;;;;10.45;87.04;96934.44;6326221;28;20197;-54
2024/03/02 10:31:07;;;;;;;23.23;16.03;;;;;;;10.43;88.03;96939.22;6321212;28;20190;-53
2024/03/02 10:34:12;;;;;;;19.30;14.47;;;;;;;10.42;90.88;96934.94;6332539;28;20206;-53
2024/03/02 10:37:15;;;;;;;23.73;17.50;;;;;;;10.49;89.36;96930.22;6332412;28;20200;-51
2024/03/02 10:40:17;;;;;;;23.07;16.83;;;;;;;10.58;89.49;96938.47;6337352;28;20204;-54
2024/03/02 10:43:20;;;;;;;27.73;19.63;;;;;;;10.53;91.10;96933.94;6336995;28;20225;-53
2024/03/02 10:46:23;;;;;;;23.00;18.40;;;;;;;10.45;90.72;96929.13;6324400;28;20745;-51
2024/03/02 10:49:27;;;;;;;23.03;18.03;;;;;;;10.33;92.19;96933.84;6332478;28;20202;-50
2024/03/02 10:52:29;;;;;;;23.47;18.30;;;;;;;10.32;92.31;96930.38;6336739;28;20674;-50
2024/03/02 10:55:33;;;;;;;25.83;19.50;;;;;;;10.36;91.69;96928.00;6332021;28;20196;-53
2024/03/02 10:58:37;;;;;;;24.77;18.57;;;;;;;10.38;91.78;96917.88;6316939;28;20190;-50
2024/03/02 11:01:42;;;;;;;23.53;18.23;;;;;;;10.51;91.12;96920.09;6331609;28;20339;-53
2024/03/02 11:04:46;;;;;;;25.33;17.43;;;;;;;10.71;89.58;96921.22;6314871;28;20204;-52
2024/03/02 11:07:50;;;;;;;23.23;16.93;;;;;;;10.63;89.48;96919.84;6329510;28;20197;-52
2024/03/02 11:10:58;;;;;;;21.70;17.03;;;;;;;10.64;88.86;96920.66;6325265;28;20193;-53
2024/03/02 11:14:08;;;;;;;23.50;16.73;;;;;;;10.63;87.90;96900.41;6322843;28;20201;-52
2024/03/02 11:17:18;;;;;;;26.80;18.97;;;;;;;10.61;89.90;96911.34;6335395;28;20284;-52
2024/03/02 11:20:21;;;;;;;25.50;18.77;;;;;;;10.58;90.22;96902.00;6339755;28;20660;-51
2024/03/02 11:23:33;;;;;;;23.83;19.00;;;;;;;10.68;90.70;96925.19;6324222;28;20286;-52
2024/03/02 11:26:39;;;;;;;26.70;21.27;;;;;;;10.57;92.33;96926.22;6313063;28;20201;-54
2024/03/02 11:29:42;;;;;;;29.00;20.93;;;;;;;10.51;93.03;96920.09;6333098;28;20190;-50
2024/03/02 11:32:55;;;;;;;27.67;20.67;;;;;;;10.65;93.01;96927.59;6331553;28;20268;-54
2024/03/02 11:35:58;;;;;;;28.17;21.57;;;;;;;10.74;92.70;96918.06;6334496;28;20201;-52
2024/03/02 11:39:00;;;;;;;27.20;20.70;;;;;;;10.74;92.62;96926.03;6326758;28;20189;-51
2024/03/02 11:42:02;;;;;;;28.60;22.30;;;;;;;10.64;93.34;96921.47;6339688;28;20311;-51
2024/03/02 11:45:08;;;;;;;31.63;24.03;;;;;;;10.21;96.38;96923.38;6321016;28;20193;-53
2024/03/02 11:48:14;;;;;;;33.53;24.47;;;;;;;10.40;96.61;96931.75;6340097;27;20205;-53
2024/03/02 11:51:16;;;;;;;31.43;23.33;;;;;;;10.48;96.75;96912.59;6328208;28;20189;-50
2024/03/02 11:54:20;;;;;;;32.07;24.37;;;;;;;10.66;94.40;96930.00;6334751;28;20196;-50
2024/03/02 11:57:22;;;;;;;30.87;23.87;;;;;;;10.63;95.22;96929.72;6334255;28;20188;-49
2024/03/02 12:00:24;;;;;;;34.83;24.53;;;;;;;10.62;95.47;96931.56;6327249;28;20198;-49
2024/03/02 12:03:27;;;;;;;34.43;25.67;;;;;;;10.48;96.34;96923.25;6329133;28;20284;-51
2024/03/02 12:06:29;;;;;;;31.63;24.57;;;;;;;10.45;97.07;96929.13;6329028;28;20223;-53
2024/03/02 12:09:31;;;;;;;33.20;24.07;;;;;;;10.30;98.72;96915.72;6305540;28;20199;-52
2024/03/02 12:12:34;;;;;;;34.03;25.43;;;;;;;10.63;96.95;96924.38;6329246;28;20208;-51
2024/03/02 12:15:38;;;;;;;33.90;25.20;;;;;;;10.60;97.44;96928.38;6330236;28;20280;-51
2024/03/02 12:18:43;;;;;;;32.37;26.00;;;;;;;10.31;97.76;96934.09;6325284;28;20208;-53
2024/03/02 12:21:46;;;;;;;33.23;26.10;;;;;;;10.30;98.70;96919.19;6328305;28;20668;-53
2024/03/02 12:24:48;;;;;;;32.23;22.70;;;;;;;10.54;95.96;96916.91;6312243;28;20211;-54
2024/03/02 12:27:53;;;;;;;37.30;25.30;;;;;;;10.56;95.42;96914.78;6331549;28;20199;-51
2024/03/02 12:30:56;;;;;;;32.63;24.87;;;;;;;10.66;95.09;96919.34;6332225;28;20198;-49
2024/03/02 12:33:58;;;;;;;30.93;23.40;;;;;;;10.68;94.03;96906.56;6321886;28;20273;-49
2024/03/02 12:37:01;;;;;;;33.47;24.00;;;;;;;10.80;93.76;96919.66;6312481;28;20207;-52
2024/03/02 12:40:05;;;;;;;36.13;26.40;;;;;;;10.78;94.13;96914.59;6320360;28;20196;-50
2024/03/02 12:43:07;;;;;;;32.87;25.07;;;;;;;10.74;95.00;96910.88;6334688;28;20276;-53
2024/03/02 12:46:10;;;;;;;35.63;25.87;;;;;;;10.87;93.95;96906.88;6330297;28;20327;-50
2024/03/02 12:49:20;;;;;;;35.33;25.40;;;;;;;10.91;94.32;96918.63;6328867;28;20222;-49
2024/03/02 12:52:22;;;;;;;37.37;25.60;;;;;;;11.03;93.68;96913.88;6329120;28;20185;-52
2024/03/02 12:55:25;;;;;;;34.97;24.93;;;;;;;11.08;91.71;96900.56;6333605;28;20182;-52
2024/03/02 12:58:29;;;;;;;37.27;25.97;;;;;;;11.19;90.84;96896.03;6331206;28;20247;-53
2024/03/02 13:01:31;;;;;;;38.23;26.50;;;;;;;11.07;93.25;96901.59;6332151;28;20197;-51
2024/03/02 13:04:33;;;;;;;36.93;27.53;;;;;;;11.17;91.74;96887.50;6334058;28;20186;-51
2024/03/02 13:07:36;;;;;;;36.00;25.80;;;;;;;11.25;92.49;96894.97;6327923;28;20945;-54
2024/03/02 13:10:39;;;;;;;36.53;25.97;;;;;;;11.22;92.33;96900.81;6331937;28;20208;-53
2024/03/02 13:13:42;;;;;;;36.03;28.23;;;;;;;11.24;91.53;96888.06;6340380;28;20204;-54
2024/03/02 13:16:44;;;;;;;39.17;26.67;;;;;;;11.33;91.11;96897.13;6337361;28;20275;-50
2024/03/02 13:19:53;;;;;;;36.87;27.30;;;;;;;11.45;90.22;96893.38;6334132;28;20203;-53
2024/03/02 13:22:55;;;;;;;34.07;26.20;;;;;;;11.43;89.49;96880.34;6324518;28;20763;-52
2024/03/02 13:25:58;;;;;;;34.20;27.17;;;;;;;11.28;90.33;96870.47;6330680;28;20215;-51
2024/03/02 13:29:00;;;;;;;37.10;28.27;;;;;;;11.30;90.85;96884.31;6339489;28;20196;-53
2024/03/02 13:32:02;;;;;;;39.47;27.70;;;;;;;11.29;90.68;96885.38;6339878;28;20207;-53
2024/03/02 13:35:05;;;;;;;41.13;31.63;;;;;;;10.66;94.41;96892.72;6331037;28;20200;-54
2024/03/02 13:38:07;;;;;;;42.10;30.10;;;;;;;10.55;96.85;96893.75;6326845;28;20201;-52
2024/03/02 13:41:10;;;;;;;40.63;30.97;;;;;;;10.53;97.97;96893.97;6329513;28;20237;-47
2024/03/02 13:44:12;;;;;;;47.50;34.10;;;;;;;10.39;98.33;96879.53;6311313;28;20225;-53
2024/03/02 13:47:15;;;;;;;48.77;34.47;;;;;;;10.38;99.58;96887.81;6306964;28;20193;-51
2024/03/02 13:50:17;;;;;;;41.03;30.57;;;;;;;10.32;100.00;96890.44;6290861;28;20224;-52
2024/03/02 13:53:20;;;;;;;46.80;32.03;;;;;;;10.24;99.03;96864.31;6307778;28;20184;-52
2024/03/02 13:56:22;;;;;;;42.17;31.17;;;;;;;10.51;99.31;96897.97;6313610;28;20297;-53
2024/03/02 13:59:26;;;;;;;46.67;32.63;;;;;;;10.46;100.00;96904.09;6314815;28;20197;-51
2024/03/02 14:02:29;;;;;;;44.70;32.70;;;;;;;10.46;100.00;96897.97;6293334;28;20227;-50
2024/03/02 14:05:31;;;;;;;42.43;32.03;;;;;;;10.49;99.58;96884.94;6312450;28;20208;-52
2024/03/02 14:08:35;;;;;;;47.10;32.87;;;;;;;10.63;99.24;96909.19;6294279;28;20216;-50